New Albany, Ohio
Current Conditions -  °F | °C
As of 12:51 AM on Tuesday 27 Jan 2015 (Local Time) from KCMH Reporting Station
Broken Clouds Broken Clouds  
Wind Chill: 10°   Ceiling: 1700
Heat Index: 10°   Visibility: 7mi
Dew Point:   Wind: 3mph
Humidity: 87%   Direction: 40°NE
Pressure: 29.94"   Gusts: NA
Location:  40.08°N, 82.81°W
Report Text: KCMH 270551Z 04003KT 7SM BKN017 M12/M14 A2994 RMK AO2 SLP152 4/002 T11221139 11089 21122 58003
Loading
Personal Weather Stations






























Interactive Weather Map New forecast layout! Learn more

10-Day Weather Forecast

Advertisements
Track Severe Weather on mobile